createdAt,value
2018-12-31T00:02:09.583Z,80.87
2018-12-31T00:04:36.854Z,80.87
2018-12-31T00:07:04.131Z,81.19
2018-12-31T00:09:31.354Z,81.19
2018-12-31T00:11:58.652Z,81.05
2018-12-31T00:14:25.884Z,80.72
2018-12-31T00:16:53.108Z,80.62
2018-12-31T00:19:20.359Z,80.67
2018-12-31T00:21:47.880Z,80.53
2018-12-31T00:24:15.191Z,80.64
2018-12-31T00:26:42.486Z,80.54
2018-12-31T00:29:09.728Z,80.35
2018-12-31T00:31:36.953Z,80.35
2018-12-31T00:34:05.421Z,80.62
2018-12-31T00:36:32.652Z,80.52
2018-12-31T00:38:59.885Z,80.77
2018-12-31T00:41:27.151Z,80.32
2018-12-31T00:43:54.373Z,80.47
2018-12-31T00:46:21.607Z,80.87
2018-12-31T00:48:48.842Z,80.71
2018-12-31T00:51:16.079Z,80.51
2018-12-31T00:53:43.304Z,81.02
2018-12-31T00:56:10.556Z,80.71
2018-12-31T00:58:37.780Z,80.52
2018-12-31T01:01:05.038Z,80.57
2018-12-31T01:03:32.286Z,80.42
2018-12-31T01:05:59.555Z,80.14
2018-12-31T01:08:26.819Z,80.22
2018-12-31T01:10:55.776Z,80.31
2018-12-31T01:13:23.003Z,79.93
2018-12-31T01:15:50.265Z,80.14
2018-12-31T01:18:17.506Z,80.14
2018-12-31T01:20:44.767Z,80.38
2018-12-31T01:23:12.059Z,80.32
2018-12-31T01:25:39.376Z,80.95
2018-12-31T01:28:06.629Z,80.95
2018-12-31T01:30:33.892Z,80.88
2018-12-31T01:33:01.125Z,81.15
2018-12-31T01:35:28.368Z,81.15
2018-12-31T01:37:55.669Z,81.07
2018-12-31T01:40:22.884Z,81.01
2018-12-31T01:42:50.139Z,80.92
2018-12-31T01:45:17.397Z,81.56
2018-12-31T01:47:44.604Z,81.81
2018-12-31T01:50:11.831Z,82.07
2018-12-31T01:52:39.085Z,81.68
2018-12-31T01:55:06.336Z,81.45
2018-12-31T01:57:35.725Z,81.51
2018-12-31T02:00:03.119Z,81.51
2018-12-31T02:02:30.351Z,81.59
2018-12-31T02:04:57.636Z,81.60
2018-12-31T02:07:24.929Z,81.66
2018-12-31T02:09:52.175Z,81.58
2018-12-31T02:12:19.410Z,81.58
2018-12-31T02:14:46.668Z,81.51
2018-12-31T02:17:13.900Z,81.77
2018-12-31T02:19:41.116Z,81.45
2018-12-31T02:22:08.426Z,81.57
2018-12-31T02:24:35.708Z,81.27
2018-12-31T02:27:02.946Z,81.05
2018-12-31T02:29:30.206Z,81.05
2018-12-31T02:31:57.443Z,81.42
2018-12-31T02:34:24.698Z,81.61
2018-12-31T02:36:52.003Z,81.23
2018-12-31T02:39:19.228Z,81.23
2018-12-31T02:41:46.466Z,81.17
2018-12-31T02:44:13.726Z,81.68
2018-12-31T02:46:40.977Z,81.31
2018-12-31T02:49:08.208Z,81.54
2018-12-31T02:51:35.483Z,81.54
2018-12-31T02:54:02.713Z,81.61
2018-12-31T02:56:29.947Z,81.07
2018-12-31T02:58:57.197Z,80.96
2018-12-31T03:01:24.425Z,80.90
2018-12-31T03:03:51.669Z,80.67
2018-12-31T03:06:18.921Z,80.67
2018-12-31T03:08:46.189Z,80.88
2018-12-31T03:11:13.423Z,80.55
2018-12-31T03:13:40.696Z,80.48
2018-12-31T03:16:07.940Z,80.52
2018-12-31T03:18:35.271Z,80.22
2018-12-31T03:21:02.560Z,80.30
2018-12-31T03:23:29.785Z,80.09
2018-12-31T03:25:57.083Z,80.13
2018-12-31T03:28:24.342Z,79.91
2018-12-31T03:30:51.607Z,80.25
2018-12-31T03:33:18.823Z,80.13
2018-12-31T03:35:46.064Z,79.81
2018-12-31T03:38:14.229Z,79.81
2018-12-31T03:40:41.455Z,80.31
2018-12-31T03:43:08.686Z,80.26
2018-12-31T03:45:35.959Z,80.24
2018-12-31T03:48:03.160Z,80.54
2018-12-31T03:50:30.373Z,80.24
2018-12-31T03:52:57.663Z,80.04
2018-12-31T03:55:24.892Z,80.00
2018-12-31T03:57:52.169Z,80.06
2018-12-31T04:00:19.415Z,80.44
2018-12-31T04:02:47.138Z,80.22
2018-12-31T04:05:14.426Z,80.18
2018-12-31T04:07:41.655Z,80.48
2018-12-31T04:10:08.960Z,80.63
2018-12-31T04:12:36.277Z,80.63
2018-12-31T04:15:03.931Z,80.63
2018-12-31T04:17:31.171Z,80.64
2018-12-31T04:19:58.426Z,80.95
2018-12-31T04:22:25.677Z,80.93
2018-12-31T04:24:52.977Z,80.43
2018-12-31T04:27:20.271Z,80.28
2018-12-31T04:29:47.491Z,80.29
2018-12-31T04:32:14.710Z,80.40
2018-12-31T04:34:41.989Z,80.15
2018-12-31T04:37:09.479Z,80.06
2018-12-31T04:39:36.710Z,80.23
2018-12-31T04:42:03.968Z,80.14
2018-12-31T04:44:31.214Z,80.35
2018-12-31T04:47:01.820Z,80.53
2018-12-31T04:49:29.043Z,80.71
2018-12-31T04:51:58.652Z,80.74
2018-12-31T04:54:25.927Z,80.74
2018-12-31T04:56:53.133Z,81.12
2018-12-31T04:59:20.374Z,81.61
2018-12-31T05:01:47.647Z,81.61
2018-12-31T05:04:14.884Z,81.29
2018-12-31T05:06:42.121Z,81.49
2018-12-31T05:09:09.380Z,81.55
2018-12-31T05:11:36.625Z,81.12
2018-12-31T05:14:03.836Z,81.12
2018-12-31T05:16:31.119Z,81.20
2018-12-31T05:18:59.667Z,81.15
2018-12-31T05:21:26.901Z,81.73
2018-12-31T05:23:54.189Z,81.73
2018-12-31T05:26:21.493Z,81.31
2018-12-31T05:28:48.802Z,81.31
2018-12-31T05:31:16.078Z,81.01
2018-12-31T05:33:43.309Z,80.75
2018-12-31T05:36:10.576Z,80.70
2018-12-31T05:38:37.830Z,80.62
2018-12-31T05:41:05.060Z,80.52
2018-12-31T05:43:32.343Z,80.56
2018-12-31T05:46:02.070Z,80.93
2018-12-31T05:48:29.284Z,80.76
2018-12-31T05:50:56.561Z,81.24
2018-12-31T05:53:24.070Z,80.91
2018-12-31T05:55:51.333Z,80.82
2018-12-31T05:58:18.585Z,80.99
2018-12-31T06:00:45.838Z,80.99
2018-12-31T06:03:13.101Z,80.91
2018-12-31T06:05:40.400Z,80.53
2018-12-31T06:08:07.661Z,80.53
2018-12-31T06:10:34.907Z,80.35
2018-12-31T06:13:02.448Z,80.30
2018-12-31T06:15:29.665Z,80.27
2018-12-31T06:17:56.910Z,80.37
2018-12-31T06:20:24.159Z,80.73
2018-12-31T06:22:51.372Z,80.70
2018-12-31T06:25:18.689Z,80.45
2018-12-31T06:27:45.995Z,80.39
2018-12-31T06:30:13.224Z,80.72
2018-12-31T06:32:40.448Z,80.86
2018-12-31T06:35:07.727Z,80.56
2018-12-31T06:37:34.981Z,80.28
2018-12-31T06:40:02.878Z,80.21
2018-12-31T06:42:30.103Z,80.21
2018-12-31T06:45:03.058Z,80.04
2018-12-31T06:47:30.304Z,79.93
2018-12-31T06:49:57.524Z,80.08
2018-12-31T06:52:24.731Z,80.08
2018-12-31T06:54:52.055Z,79.93
2018-12-31T06:57:19.258Z,79.93
2018-12-31T06:59:46.475Z,79.91
2018-12-31T07:02:13.753Z,79.64
2018-12-31T07:04:40.975Z,79.39
2018-12-31T07:07:08.206Z,79.01
2018-12-31T07:09:35.470Z,79.22
2018-12-31T07:12:02.751Z,79.21
2018-12-31T07:14:30.045Z,79.21
2018-12-31T07:16:57.362Z,79.58
2018-12-31T07:19:24.562Z,79.79
2018-12-31T07:21:51.782Z,79.97
2018-12-31T07:24:19.013Z,80.32
2018-12-31T07:26:46.293Z,80.32
2018-12-31T07:29:13.571Z,80.53
2018-12-31T07:31:40.826Z,80.53
2018-12-31T07:34:08.047Z,80.47
2018-12-31T07:36:35.473Z,80.80
2018-12-31T07:39:04.151Z,80.97
2018-12-31T07:41:31.366Z,81.08
2018-12-31T07:43:58.617Z,80.87
2018-12-31T07:46:25.843Z,80.99
2018-12-31T07:48:53.091Z,80.99
2018-12-31T07:51:20.340Z,81.25
2018-12-31T07:53:47.570Z,81.08
2018-12-31T07:56:14.802Z,81.29
2018-12-31T07:58:42.068Z,80.54
2018-12-31T08:01:10.448Z,80.54
2018-12-31T08:03:37.704Z,80.64
2018-12-31T08:06:04.933Z,80.50
2018-12-31T08:08:32.192Z,80.45
2018-12-31T08:10:59.419Z,80.45
2018-12-31T08:13:27.061Z,80.39
2018-12-31T08:15:54.336Z,80.22
2018-12-31T08:18:21.575Z,80.06
2018-12-31T08:20:48.775Z,80.06
2018-12-31T08:23:16.208Z,79.97
2018-12-31T08:25:43.737Z,79.90
2018-12-31T08:28:11.154Z,80.21
2018-12-31T08:30:38.428Z,80.22
2018-12-31T08:33:08.363Z,80.22
2018-12-31T08:35:35.592Z,80.06
2018-12-31T08:38:02.931Z,80.23
2018-12-31T08:40:30.160Z,80.17
2018-12-31T08:42:57.396Z,80.23
2018-12-31T08:45:24.730Z,80.38
2018-12-31T08:47:51.977Z,80.34
2018-12-31T08:50:19.449Z,80.52
2018-12-31T08:52:46.722Z,80.61
2018-12-31T08:55:14.077Z,80.42
2018-12-31T08:57:41.319Z,79.94
2018-12-31T09:00:08.948Z,79.93
2018-12-31T09:02:36.185Z,80.08
2018-12-31T09:05:03.689Z,80.15
2018-12-31T09:07:31.289Z,80.04
2018-12-31T09:09:58.584Z,80.46
2018-12-31T09:12:25.820Z,80.68
2018-12-31T09:14:53.056Z,80.40
2018-12-31T09:17:20.353Z,80.58
2018-12-31T09:19:47.608Z,80.61
2018-12-31T09:22:14.851Z,80.61
2018-12-31T09:24:44.730Z,80.47
2018-12-31T09:27:11.273Z,80.47
2018-12-31T09:29:38.502Z,80.78
2018-12-31T09:32:05.800Z,81.27
2018-12-31T09:34:33.047Z,80.84
2018-12-31T09:37:00.540Z,80.84
2018-12-31T09:39:28.017Z,80.53
2018-12-31T09:41:55.504Z,80.86
2018-12-31T09:44:23.189Z,80.86
2018-12-31T09:46:50.461Z,80.74
2018-12-31T09:49:17.708Z,81.19
2018-12-31T09:51:44.936Z,81.19
2018-12-31T09:54:12.334Z,81.19
2018-12-31T09:56:39.827Z,81.01
2018-12-31T09:59:07.160Z,80.77
2018-12-31T10:01:34.423Z,80.98
2018-12-31T10:04:01.711Z,81.11
2018-12-31T10:06:28.987Z,81.05
2018-12-31T10:08:56.209Z,81.26
2018-12-31T10:11:23.490Z,81.00
2018-12-31T10:13:50.755Z,80.81
2018-12-31T10:16:19.203Z,80.89
2018-12-31T10:18:46.857Z,80.89
2018-12-31T10:21:14.152Z,80.51
2018-12-31T10:23:43.595Z,80.51
2018-12-31T10:26:10.869Z,80.61
2018-12-31T10:28:38.154Z,80.51
2018-12-31T10:31:05.404Z,80.75
2018-12-31T10:33:32.627Z,80.75
2018-12-31T10:35:59.896Z,80.74
2018-12-31T10:38:27.145Z,80.69
2018-12-31T10:40:54.387Z,80.62
2018-12-31T10:43:21.673Z,80.62
2018-12-31T10:45:48.928Z,80.40
2018-12-31T10:48:16.199Z,80.39
2018-12-31T10:50:43.517Z,80.15
2018-12-31T10:53:10.725Z,80.29
2018-12-31T10:55:38.133Z,80.29
2018-12-31T10:58:05.446Z,80.36
2018-12-31T11:00:32.682Z,80.42
2018-12-31T11:02:59.965Z,80.50
2018-12-31T11:05:28.384Z,80.57
2018-12-31T11:07:55.609Z,80.16
2018-12-31T11:10:22.894Z,80.21
2018-12-31T11:12:50.146Z,80.21
2018-12-31T11:15:17.382Z,80.11
2018-12-31T11:17:44.634Z,80.14
2018-12-31T11:20:12.056Z,80.07
2018-12-31T11:22:39.362Z,79.97
2018-12-31T11:25:06.591Z,79.60
2018-12-31T11:27:33.901Z,79.50
2018-12-31T11:30:01.244Z,79.22
2018-12-31T11:32:28.438Z,79.42
2018-12-31T11:34:56.424Z,79.32
2018-12-31T11:37:23.659Z,79.21
2018-12-31T11:39:50.897Z,79.21
2018-12-31T11:42:18.204Z,79.58
2018-12-31T11:44:45.432Z,79.58
2018-12-31T11:47:14.836Z,79.49
2018-12-31T11:49:42.092Z,79.87
2018-12-31T11:52:09.364Z,80.06
2018-12-31T11:54:36.593Z,79.37
2018-12-31T11:57:03.857Z,78.94
2018-12-31T11:59:31.090Z,78.95
2018-12-31T12:01:58.363Z,79.10
2018-12-31T12:04:26.659Z,78.55
2018-12-31T12:06:54.089Z,78.72
2018-12-31T12:09:21.409Z,78.68
2018-12-31T12:11:48.676Z,78.33
2018-12-31T12:14:15.902Z,78.50
2018-12-31T12:16:43.143Z,78.43
2018-12-31T12:19:10.423Z,78.61
2018-12-31T12:21:37.686Z,78.38
2018-12-31T12:24:04.969Z,78.57
2018-12-31T12:26:32.251Z,78.57
2018-12-31T12:28:59.680Z,78.58
2018-12-31T12:31:27.252Z,78.58
2018-12-31T12:33:54.496Z,78.34
2018-12-31T12:36:22.157Z,78.93
2018-12-31T12:38:49.421Z,78.93
2018-12-31T12:41:16.667Z,79.28
2018-12-31T12:43:43.896Z,78.64
2018-12-31T12:46:11.386Z,78.88
2018-12-31T12:48:38.631Z,78.70
2018-12-31T12:51:05.882Z,78.97
2018-12-31T12:53:33.152Z,78.91
2018-12-31T12:56:00.386Z,78.83
2018-12-31T12:58:27.621Z,78.97
2018-12-31T13:00:54.892Z,79.04
2018-12-31T13:03:22.190Z,79.11
2018-12-31T13:05:49.761Z,78.56
2018-12-31T13:08:16.996Z,78.56
2018-12-31T13:10:44.250Z,78.53
2018-12-31T13:13:11.488Z,78.45
2018-12-31T13:15:38.744Z,78.79
2018-12-31T13:18:06.973Z,78.93
2018-12-31T13:20:34.197Z,78.84
2018-12-31T13:23:01.538Z,79.14
2018-12-31T13:25:28.772Z,79.14
2018-12-31T13:27:56.281Z,78.78
2018-12-31T13:30:23.669Z,78.93
2018-12-31T13:32:50.973Z,78.86
2018-12-31T13:35:18.243Z,79.05
2018-12-31T13:37:45.536Z,78.59
2018-12-31T13:40:12.737Z,78.59
2018-12-31T13:42:39.939Z,78.77
2018-12-31T13:45:07.356Z,79.42
2018-12-31T13:47:34.615Z,78.97
2018-12-31T13:50:02.019Z,79.35
2018-12-31T13:52:29.312Z,79.35
2018-12-31T13:54:56.545Z,79.50
2018-12-31T13:57:23.805Z,78.75
2018-12-31T13:59:51.072Z,79.50
2018-12-31T14:02:18.387Z,78.80
2018-12-31T14:04:45.601Z,79.09
2018-12-31T14:07:12.895Z,79.58
2018-12-31T14:09:40.343Z,78.97
2018-12-31T14:12:08.457Z,79.54
2018-12-31T14:14:35.846Z,79.04
2018-12-31T14:17:03.072Z,79.22
2018-12-31T14:19:30.307Z,79.16
2018-12-31T14:21:57.574Z,79.17
2018-12-31T14:24:24.852Z,78.92
2018-12-31T14:26:52.085Z,78.83
2018-12-31T14:29:19.352Z,78.83
2018-12-31T14:31:46.577Z,79.03
2018-12-31T14:34:13.830Z,79.36
2018-12-31T14:36:41.346Z,78.99
2018-12-31T14:39:08.615Z,79.00
2018-12-31T14:41:35.874Z,78.81
2018-12-31T14:44:03.116Z,78.81
2018-12-31T14:46:30.392Z,78.77
2018-12-31T14:48:57.641Z,79.50
2018-12-31T14:51:25.277Z,78.43
2018-12-31T14:53:52.500Z,79.66
2018-12-31T14:56:19.789Z,79.15
2018-12-31T14:58:49.558Z,79.42
2018-12-31T15:01:17.709Z,80.04
2018-12-31T15:03:44.935Z,79.41
2018-12-31T15:06:12.212Z,79.78
2018-12-31T15:08:39.439Z,80.10
2018-12-31T15:11:06.727Z,80.37
2018-12-31T15:13:33.942Z,80.37
2018-12-31T15:16:01.198Z,80.54
2018-12-31T15:18:28.767Z,80.68
2018-12-31T15:20:56.005Z,80.53
2018-12-31T15:23:23.600Z,82.00
2018-12-31T15:25:50.919Z,82.00
2018-12-31T15:28:21.155Z,80.99
2018-12-31T15:30:48.460Z,80.52
2018-12-31T15:33:15.748Z,80.42
2018-12-31T15:35:43.052Z,80.42
2018-12-31T15:38:10.323Z,81.44
2018-12-31T15:40:37.618Z,80.45
2018-12-31T15:43:04.858Z,80.45
2018-12-31T15:45:33.283Z,80.60
2018-12-31T15:48:00.762Z,81.13
2018-12-31T15:50:28.027Z,81.65
2018-12-31T15:52:55.335Z,80.33
2018-12-31T15:55:22.563Z,82.12
2018-12-31T15:57:49.844Z,80.61
2018-12-31T16:00:17.359Z,80.45
2018-12-31T16:02:44.590Z,81.25
2018-12-31T16:05:11.865Z,79.92
2018-12-31T16:07:45.601Z,79.92
2018-12-31T16:10:09.051Z,80.09
2018-12-31T16:12:36.326Z,79.60
2018-12-31T16:15:04.257Z,80.64
2018-12-31T16:17:31.508Z,80.64
2018-12-31T16:19:58.739Z,79.45
2018-12-31T16:22:26.050Z,78.77
2018-12-31T16:24:53.324Z,79.40
2018-12-31T16:27:20.916Z,79.40
2018-12-31T16:29:48.221Z,78.47
2018-12-31T16:32:15.462Z,78.33
2018-12-31T16:34:42.697Z,79.09
2018-12-31T16:37:09.936Z,78.62
2018-12-31T16:39:37.152Z,77.31
2018-12-31T16:42:04.708Z,78.25
2018-12-31T16:44:31.931Z,78.61
2018-12-31T16:46:59.181Z,78.77
2018-12-31T16:49:26.428Z,78.47
2018-12-31T16:51:53.658Z,78.46
2018-12-31T16:54:20.938Z,78.86
2018-12-31T16:56:48.358Z,79.93
2018-12-31T16:59:20.905Z,79.33
2018-12-31T17:01:50.998Z,79.33
2018-12-31T17:04:21.902Z,80.07
2018-12-31T17:06:49.209Z,80.07
2018-12-31T17:09:19.332Z,79.10
2018-12-31T17:11:46.561Z,78.94
2018-12-31T17:14:16.021Z,78.94
2018-12-31T17:16:43.302Z,79.20
2018-12-31T17:19:10.561Z,79.59
2018-12-31T17:21:37.840Z,78.93
2018-12-31T17:24:05.073Z,79.14
2018-12-31T17:26:32.352Z,80.51
2018-12-31T17:28:59.705Z,79.99
2018-12-31T17:31:26.943Z,79.97
2018-12-31T17:33:54.212Z,79.97
2018-12-31T17:36:22.019Z,79.54
2018-12-31T17:38:49.441Z,79.74
2018-12-31T17:41:18.124Z,80.22
2018-12-31T17:43:45.350Z,79.13
2018-12-31T17:46:12.919Z,79.61
2018-12-31T17:48:40.208Z,79.73
2018-12-31T17:51:07.828Z,80.57
2018-12-31T17:53:35.074Z,79.22
2018-12-31T17:56:04.131Z,79.70
2018-12-31T17:58:31.411Z,80.64
2018-12-31T18:00:58.721Z,79.48
2018-12-31T18:03:25.977Z,79.07
2018-12-31T18:05:53.240Z,79.47
2018-12-31T18:08:20.629Z,79.74
2018-12-31T18:10:47.876Z,79.66
2018-12-31T18:13:15.116Z,79.90
2018-12-31T18:15:42.386Z,79.90
2018-12-31T18:18:09.642Z,78.91
2018-12-31T18:20:36.884Z,79.43
2018-12-31T18:23:04.154Z,79.36
2018-12-31T18:25:33.364Z,79.36
2018-12-31T18:28:00.602Z,79.59
2018-12-31T18:30:29.268Z,80.77
2018-12-31T18:32:57.069Z,79.53
2018-12-31T18:35:24.556Z,80.12
2018-12-31T18:37:51.979Z,79.47
2018-12-31T18:40:19.223Z,79.47
2018-12-31T18:42:46.473Z,79.30
2018-12-31T18:45:13.762Z,79.65
2018-12-31T18:47:42.302Z,79.50
2018-12-31T18:50:09.617Z,79.50
2018-12-31T18:52:36.913Z,79.92
2018-12-31T18:55:05.346Z,79.28
2018-12-31T18:57:32.647Z,79.56
2018-12-31T18:59:59.893Z,79.56
2018-12-31T19:02:27.093Z,79.36
2018-12-31T19:04:54.477Z,79.32
2018-12-31T19:07:21.715Z,79.22
2018-12-31T19:09:49.004Z,79.29
2018-12-31T19:12:16.353Z,79.28
2018-12-31T19:14:43.979Z,79.28
2018-12-31T19:17:11.239Z,78.82
2018-12-31T19:19:38.616Z,78.82
2018-12-31T19:22:05.858Z,79.46
2018-12-31T19:24:33.074Z,79.20
2018-12-31T19:27:00.341Z,78.49
2018-12-31T19:29:27.779Z,79.96
2018-12-31T19:31:57.148Z,79.42
2018-12-31T19:34:24.465Z,77.54
2018-12-31T19:36:51.677Z,77.93
2018-12-31T19:39:19.181Z,78.43
2018-12-31T19:41:46.737Z,77.99
2018-12-31T19:44:14.166Z,79.08
2018-12-31T19:46:42.254Z,76.87
2018-12-31T19:49:09.499Z,76.99
2018-12-31T19:51:36.755Z,77.09
2018-12-31T19:54:04.319Z,77.93
2018-12-31T19:56:31.625Z,77.93
2018-12-31T19:58:58.866Z,78.14
2018-12-31T20:01:26.097Z,78.14
2018-12-31T20:03:53.348Z,76.33
2018-12-31T20:06:20.568Z,79.42
2018-12-31T20:08:47.926Z,77.92
2018-12-31T20:11:15.140Z,75.92
2018-12-31T20:13:42.386Z,77.02
2018-12-31T20:16:09.685Z,77.14
2018-12-31T20:18:36.961Z,77.01
2018-12-31T20:21:04.192Z,76.82
2018-12-31T20:23:31.454Z,75.66
2018-12-31T20:25:58.699Z,76.74
2018-12-31T20:28:26.141Z,75.39
2018-12-31T20:30:53.429Z,77.37
2018-12-31T20:33:20.695Z,74.91
2018-12-31T20:35:47.932Z,75.70
2018-12-31T20:38:15.210Z,76.11
2018-12-31T20:40:42.428Z,74.44
2018-12-31T20:43:11.697Z,75.41
2018-12-31T20:45:39.156Z,73.70
2018-12-31T20:48:06.387Z,75.39
2018-12-31T20:50:33.642Z,73.51
2018-12-31T20:53:01.093Z,75.91
2018-12-31T20:55:28.366Z,74.00
2018-12-31T20:57:55.555Z,74.81
2018-12-31T21:00:22.817Z,74.45
2018-12-31T21:02:50.068Z,74.24
2018-12-31T21:05:17.306Z,74.01
2018-12-31T21:07:44.540Z,73.49
2018-12-31T21:10:11.874Z,77.52
2018-12-31T21:12:40.235Z,75.59
2018-12-31T21:15:07.761Z,72.73
2018-12-31T21:17:35.026Z,73.56
2018-12-31T21:20:02.258Z,76.23
2018-12-31T21:22:29.729Z,75.51
2018-12-31T21:24:56.970Z,76.39
2018-12-31T21:27:24.296Z,77.06
2018-12-31T21:29:51.647Z,74.48
2018-12-31T21:32:19.036Z,76.99
2018-12-31T21:34:46.288Z,77.59
2018-12-31T21:37:13.620Z,75.22
2018-12-31T21:39:40.858Z,76.18
2018-12-31T21:42:08.106Z,76.18
2018-12-31T21:44:35.703Z,75.39
2018-12-31T21:47:02.946Z,75.88
2018-12-31T21:49:30.169Z,75.24
2018-12-31T21:51:57.419Z,74.85
2018-12-31T21:54:24.669Z,74.85
2018-12-31T21:56:51.922Z,75.14
2018-12-31T21:59:19.378Z,76.36
2018-12-31T22:01:46.610Z,76.29
2018-12-31T22:04:13.999Z,73.86
2018-12-31T22:06:41.244Z,73.86
2018-12-31T22:09:08.528Z,76.57
2018-12-31T22:11:36.786Z,74.80
2018-12-31T22:14:04.101Z,74.14
2018-12-31T22:16:31.637Z,77.38
2018-12-31T22:18:58.863Z,73.52
2018-12-31T22:21:26.125Z,76.58
2018-12-31T22:23:53.468Z,75.13
2018-12-31T22:26:21.027Z,74.37
2018-12-31T22:28:48.371Z,74.37
2018-12-31T22:31:15.682Z,76.70
2018-12-31T22:33:42.975Z,73.98
2018-12-31T22:36:10.225Z,72.66
2018-12-31T22:38:37.473Z,72.66
2018-12-31T22:41:04.818Z,73.35
2018-12-31T22:43:32.332Z,74.15
2018-12-31T22:45:59.655Z,73.55
2018-12-31T22:48:26.916Z,74.66
2018-12-31T22:50:54.220Z,74.79
2018-12-31T22:53:21.722Z,73.49
2018-12-31T22:55:49.249Z,73.75
2018-12-31T22:58:16.495Z,74.16
2018-12-31T23:00:43.792Z,73.91
2018-12-31T23:03:11.137Z,73.62
2018-12-31T23:05:39.870Z,74.02
2018-12-31T23:08:10.444Z,76.66
2018-12-31T23:10:37.823Z,74.01
2018-12-31T23:13:05.056Z,75.69
2018-12-31T23:15:34.683Z,74.85
2018-12-31T23:18:01.921Z,76.72
2018-12-31T23:20:29.176Z,74.27
2018-12-31T23:22:56.843Z,74.44
2018-12-31T23:25:24.095Z,76.22
2018-12-31T23:27:51.315Z,76.28
2018-12-31T23:30:18.598Z,74.30
2018-12-31T23:32:47.865Z,74.25
2018-12-31T23:35:15.138Z,76.85
2018-12-31T23:37:43.640Z,74.57
2018-12-31T23:40:10.863Z,77.27
2018-12-31T23:42:38.238Z,73.91
2018-12-31T23:45:06.697Z,73.65
2018-12-31T23:47:33.942Z,76.10
2018-12-31T23:50:04.082Z,73.42
2018-12-31T23:52:34.828Z,73.10
2018-12-31T23:55:02.045Z,73.10
2018-12-31T23:57:29.327Z,74.95
2018-12-31T23:59:56.563Z,75.14
